createdAt,value
2018-07-31T00:02:16.837Z,23.30
2018-07-31T00:04:46.240Z,23.30
2018-07-31T00:07:14.783Z,23.30
2018-07-31T00:09:43.240Z,23.20
2018-07-31T00:12:11.899Z,23.10
2018-07-31T00:14:40.424Z,23.10
2018-07-31T00:17:08.860Z,23.10
2018-07-31T00:19:37.324Z,23.10
2018-07-31T00:22:05.776Z,23.20
2018-07-31T00:24:34.255Z,23.20
2018-07-31T00:27:02.749Z,23.20
2018-07-31T00:29:31.213Z,23.10
2018-07-31T00:31:59.664Z,23.10
2018-07-31T00:34:28.092Z,23.00
2018-07-31T00:36:56.632Z,23.00
2018-07-31T00:39:25.051Z,23.00
2018-07-31T00:41:53.495Z,22.90
2018-07-31T00:44:21.927Z,22.90
2018-07-31T00:46:51.149Z,22.90
2018-07-31T00:49:19.603Z,22.90
2018-07-31T00:51:48.961Z,22.90
2018-07-31T00:54:17.464Z,22.90
2018-07-31T00:56:46.002Z,22.80
2018-07-31T00:59:14.381Z,22.80
2018-07-31T01:01:42.835Z,22.70
2018-07-31T01:04:11.263Z,22.70
2018-07-31T01:06:43.871Z,22.70
2018-07-31T01:09:13.758Z,22.70
2018-07-31T01:11:44.063Z,22.70
2018-07-31T01:14:12.585Z,22.70
2018-07-31T01:16:41.973Z,22.60
2018-07-31T01:19:11.450Z,22.50
2018-07-31T01:21:40.449Z,22.50
2018-07-31T01:24:09.424Z,22.50
2018-07-31T01:26:37.860Z,22.50
2018-07-31T01:29:06.318Z,22.40
2018-07-31T01:31:34.805Z,22.30
2018-07-31T01:34:06.206Z,22.30
2018-07-31T01:36:34.595Z,22.20
2018-07-31T01:39:03.151Z,22.20
2018-07-31T01:41:31.581Z,22.20
2018-07-31T01:44:00.127Z,22.20
2018-07-31T01:46:28.688Z,22.10
2018-07-31T01:48:57.723Z,22.10
2018-07-31T01:51:26.134Z,22.10
2018-07-31T01:53:54.581Z,22.00
2018-07-31T01:56:23.593Z,22.00
2018-07-31T01:58:52.055Z,22.00
2018-07-31T02:01:20.529Z,22.00
2018-07-31T02:03:48.997Z,21.90
2018-07-31T02:06:17.759Z,21.90
2018-07-31T02:08:46.136Z,21.80
2018-07-31T02:11:14.612Z,21.90
2018-07-31T02:13:43.036Z,21.90
2018-07-31T02:16:18.086Z,21.80
2018-07-31T02:18:46.526Z,21.80
2018-07-31T02:21:14.968Z,21.80
2018-07-31T02:23:43.355Z,21.70
2018-07-31T02:26:12.009Z,21.70
2018-07-31T02:28:40.539Z,21.60
2018-07-31T02:31:09.041Z,21.60
2018-07-31T02:33:37.496Z,21.60
2018-07-31T02:36:06.086Z,21.60
2018-07-31T02:38:34.562Z,21.60
2018-07-31T02:41:03.035Z,21.60
2018-07-31T02:43:31.491Z,21.60
2018-07-31T02:45:59.956Z,21.50
2018-07-31T02:48:28.747Z,21.50
2018-07-31T02:50:57.163Z,21.40
2018-07-31T02:55:54.985Z,21.40
2018-07-31T02:58:23.555Z,21.30
2018-07-31T03:00:52.073Z,21.20
2018-07-31T03:03:20.574Z,21.30
2018-07-31T03:05:49.104Z,21.20
2018-07-31T03:08:17.650Z,21.30
2018-07-31T03:10:46.076Z,21.20
2018-07-31T03:13:14.524Z,21.10
2018-07-31T03:15:42.963Z,21.10
2018-07-31T03:18:11.392Z,21.10
2018-07-31T03:20:40.053Z,21.00
2018-07-31T03:23:08.467Z,21.00
2018-07-31T03:25:36.995Z,20.90
2018-07-31T03:28:05.468Z,20.90
2018-07-31T03:30:33.932Z,20.80
2018-07-31T03:33:02.380Z,20.80
2018-07-31T03:35:30.927Z,20.80
2018-07-31T03:37:59.387Z,20.80
2018-07-31T03:40:28.807Z,20.70
2018-07-31T03:42:57.208Z,20.80
2018-07-31T03:45:25.674Z,20.70
2018-07-31T03:47:54.099Z,20.80
2018-07-31T03:50:22.577Z,20.80
2018-07-31T03:52:50.990Z,20.80
2018-07-31T03:55:19.468Z,20.90
2018-07-31T03:57:47.942Z,20.80
2018-07-31T04:00:16.405Z,20.70
2018-07-31T04:02:44.889Z,20.70
2018-07-31T04:05:13.493Z,20.70
2018-07-31T04:07:41.971Z,20.70
2018-07-31T04:10:10.498Z,20.60
2018-07-31T04:12:38.997Z,20.60
2018-07-31T04:15:07.440Z,20.60
2018-07-31T04:17:35.871Z,20.60
2018-07-31T04:20:04.674Z,20.60
2018-07-31T04:22:33.275Z,20.70
2018-07-31T04:25:02.708Z,20.70
2018-07-31T04:27:31.327Z,20.70
2018-07-31T04:30:00.932Z,20.70
2018-07-31T04:32:29.365Z,20.70
2018-07-31T04:34:57.850Z,20.80
2018-07-31T04:37:31.257Z,20.80
2018-07-31T04:40:10.390Z,20.80
2018-07-31T04:42:49.997Z,20.90
2018-07-31T04:45:28.407Z,21.00
2018-07-31T04:48:05.715Z,21.00
2018-07-31T04:57:24.019Z,21.10
2018-07-31T04:59:52.488Z,21.10
2018-07-31T05:02:20.936Z,21.00
2018-07-31T05:04:49.465Z,21.00
2018-07-31T05:07:17.980Z,21.00
2018-07-31T05:09:46.428Z,21.00
2018-07-31T05:12:15.182Z,21.00
2018-07-31T05:14:43.704Z,21.00
2018-07-31T05:17:12.143Z,20.90
2018-07-31T05:19:40.623Z,20.90
2018-07-31T05:22:09.114Z,21.20
2018-07-31T05:24:37.604Z,21.40
2018-07-31T05:27:10.175Z,22.30
2018-07-31T05:29:43.251Z,23.20
2018-07-31T05:32:17.608Z,24.10
2018-07-31T05:34:50.304Z,24.60
2018-07-31T05:37:23.780Z,25.10
2018-07-31T05:39:57.103Z,25.60
2018-07-31T05:42:29.997Z,26.00
2018-07-31T05:45:04.650Z,26.70
2018-07-31T05:47:38.601Z,26.80
2018-07-31T05:50:12.031Z,26.80
2018-07-31T05:52:46.471Z,27.30
2018-07-31T05:55:21.614Z,27.70
2018-07-31T05:57:55.533Z,28.10
2018-07-31T06:00:28.181Z,28.50
2018-07-31T06:03:01.194Z,29.30
2018-07-31T06:10:31.809Z,29.90
2018-07-31T06:13:04.452Z,30.00
2018-07-31T06:15:39.908Z,29.60
2018-07-31T06:18:12.939Z,28.50
2018-07-31T06:20:46.803Z,28.30
2018-07-31T06:23:21.290Z,26.80
2018-07-31T06:25:59.559Z,26.50
2018-07-31T06:31:02.149Z,25.70
2018-07-31T06:33:35.942Z,25.60
2018-07-31T06:36:09.430Z,25.60
2018-07-31T06:38:43.849Z,25.90
2018-07-31T06:41:17.797Z,26.30
2018-07-31T06:43:52.898Z,26.10
2018-07-31T06:46:25.187Z,26.20
2018-07-31T06:48:59.661Z,25.50
2018-07-31T06:51:35.450Z,25.80
2018-07-31T06:54:07.360Z,26.80
2018-07-31T06:56:40.968Z,27.20
2018-07-31T06:59:15.919Z,27.40
2018-07-31T07:01:49.596Z,27.70
2018-07-31T07:04:23.929Z,27.90
2018-07-31T07:06:58.457Z,28.00
2018-07-31T07:09:31.416Z,28.10
2018-07-31T07:12:05.114Z,28.20
2018-07-31T07:14:38.676Z,28.00
2018-07-31T07:17:11.850Z,28.60
2018-07-31T07:19:44.813Z,29.00
2018-07-31T07:22:20.656Z,28.90
2018-07-31T07:24:55.326Z,28.90
2018-07-31T07:27:29.627Z,28.50
2018-07-31T07:30:03.299Z,28.10
2018-07-31T07:32:36.708Z,27.60
2018-07-31T07:35:10.244Z,27.30
2018-07-31T07:37:43.311Z,27.40
2018-07-31T07:40:17.572Z,27.40
2018-07-31T07:42:50.823Z,27.60
2018-07-31T07:45:24.115Z,28.70
2018-07-31T07:47:57.294Z,29.80
2018-07-31T07:50:25.735Z,29.70
2018-07-31T07:52:54.308Z,30.50
2018-07-31T07:55:26.996Z,31.00
2018-07-31T07:58:00.496Z,30.50
2018-07-31T08:00:33.930Z,30.30
2018-07-31T08:03:07.423Z,30.70
2018-07-31T08:05:40.669Z,31.70
2018-07-31T08:08:14.888Z,30.50
2018-07-31T08:10:48.741Z,31.10
2018-07-31T08:15:56.108Z,30.30
2018-07-31T08:18:29.312Z,30.70
2018-07-31T08:20:59.330Z,32.90
2018-07-31T08:23:27.916Z,31.30
2018-07-31T08:26:02.936Z,31.10
2018-07-31T08:28:32.578Z,30.90
2018-07-31T08:31:05.774Z,31.10
2018-07-31T08:33:40.397Z,31.40
2018-07-31T08:36:13.825Z,32.90
2018-07-31T08:38:47.207Z,33.50
2018-07-31T08:41:20.916Z,33.70
2018-07-31T08:43:56.936Z,34.60
2018-07-31T08:46:31.629Z,35.00
2018-07-31T08:49:04.347Z,35.10
2018-07-31T08:51:37.636Z,33.40
2018-07-31T08:54:12.598Z,33.50
2018-07-31T08:56:47.609Z,35.10
2018-07-31T08:59:19.935Z,36.90
2018-07-31T09:01:55.053Z,35.20
2018-07-31T09:04:27.633Z,34.40
2018-07-31T09:07:01.391Z,33.30
2018-07-31T09:09:34.672Z,34.30
2018-07-31T09:12:08.053Z,35.30
2018-07-31T09:14:42.838Z,35.70
2018-07-31T09:17:16.173Z,35.20
2018-07-31T09:19:48.978Z,34.70
2018-07-31T09:24:50.816Z,34.10
2018-07-31T09:27:19.242Z,36.00
2018-07-31T09:29:52.873Z,36.90
2018-07-31T09:32:32.182Z,35.20
2018-07-31T09:35:00.820Z,35.80
2018-07-31T09:37:33.236Z,35.30
2018-07-31T09:40:05.405Z,34.40
2018-07-31T09:42:37.883Z,34.70
2018-07-31T09:45:06.421Z,34.80
2018-07-31T09:47:34.954Z,33.30
2018-07-31T09:50:07.869Z,32.90
2018-07-31T09:52:41.211Z,32.90
2018-07-31T09:55:14.775Z,33.00
2018-07-31T09:57:48.869Z,32.70
2018-07-31T10:00:27.645Z,32.80
2018-07-31T10:02:58.323Z,32.80
2018-07-31T10:05:32.864Z,33.20
2018-07-31T10:08:05.590Z,33.30
2018-07-31T10:10:39.085Z,33.20
2018-07-31T10:13:14.539Z,33.20
2018-07-31T10:15:47.362Z,33.10
2018-07-31T10:18:16.144Z,33.10
2018-07-31T10:20:44.438Z,33.30
2018-07-31T10:23:13.072Z,33.60
2018-07-31T10:25:41.517Z,33.00
2018-07-31T10:28:10.351Z,33.50
2018-07-31T10:30:40.734Z,33.20
2018-07-31T10:33:14.803Z,33.30
2018-07-31T10:35:48.531Z,33.80
2018-07-31T10:38:17.168Z,34.50
2018-07-31T10:40:45.610Z,34.40
2018-07-31T10:43:14.160Z,33.90
2018-07-31T10:45:42.714Z,33.80
2018-07-31T10:48:11.344Z,33.40
2018-07-31T10:50:42.605Z,33.00
2018-07-31T10:53:15.296Z,32.80
2018-07-31T10:55:48.483Z,32.40
2018-07-31T10:58:22.046Z,31.80
2018-07-31T11:00:55.660Z,32.10
2018-07-31T11:03:29.944Z,32.50
2018-07-31T11:06:03.255Z,32.60
2018-07-31T11:08:39.119Z,32.60
2018-07-31T11:11:14.360Z,31.90
2018-07-31T11:13:46.993Z,31.70
2018-07-31T11:16:20.680Z,32.00
2018-07-31T11:21:27.994Z,32.00
2018-07-31T11:24:02.527Z,31.90
2018-07-31T11:26:36.063Z,31.60
2018-07-31T11:29:08.928Z,31.60
2018-07-31T11:31:44.568Z,31.80
2018-07-31T11:34:18.717Z,32.20
2018-07-31T11:39:25.774Z,32.20
2018-07-31T11:41:59.296Z,31.90
2018-07-31T11:44:33.785Z,31.80
2018-07-31T11:47:09.597Z,31.70
2018-07-31T11:49:41.198Z,31.90
2018-07-31T11:52:14.556Z,31.90
2018-07-31T11:54:47.940Z,32.10
2018-07-31T11:59:49.127Z,32.30
2018-07-31T12:02:17.840Z,32.50
2018-07-31T12:04:49.710Z,32.00
2018-07-31T12:07:22.967Z,32.30
2018-07-31T12:09:56.866Z,32.50
2018-07-31T12:12:31.878Z,32.40
2018-07-31T12:15:05.614Z,32.20
2018-07-31T12:17:39.273Z,32.30
2018-07-31T12:20:12.805Z,32.10
2018-07-31T12:22:47.729Z,31.90
2018-07-31T12:25:21.347Z,31.80
2018-07-31T12:27:57.043Z,31.70
2018-07-31T12:30:29.772Z,32.10
2018-07-31T12:33:03.804Z,32.30
2018-07-31T12:35:38.519Z,32.20
2018-07-31T12:38:11.125Z,32.00
2018-07-31T12:40:44.734Z,31.90
2018-07-31T12:43:18.891Z,32.00
2018-07-31T12:45:52.001Z,31.70
2018-07-31T12:48:25.104Z,31.70
2018-07-31T12:53:26.772Z,31.70
2018-07-31T12:55:55.441Z,31.60
2018-07-31T12:58:28.951Z,31.90
2018-07-31T13:01:01.579Z,32.20
2018-07-31T13:06:07.576Z,32.20
2018-07-31T13:08:40.675Z,32.20
2018-07-31T13:11:09.173Z,31.80
2018-07-31T13:13:37.622Z,31.70
2018-07-31T13:16:11.609Z,31.80
2018-07-31T13:18:44.121Z,32.20
2018-07-31T13:21:17.326Z,31.80
2018-07-31T13:23:50.858Z,31.60
2018-07-31T13:26:23.713Z,31.30
2018-07-31T13:28:56.881Z,31.10
2018-07-31T13:31:25.436Z,31.20
2018-07-31T13:33:54.496Z,31.00
2018-07-31T13:36:25.839Z,30.90
2018-07-31T13:38:59.580Z,31.00
2018-07-31T13:41:33.382Z,31.20
2018-07-31T13:44:07.563Z,31.20
2018-07-31T13:46:42.874Z,31.20
2018-07-31T13:49:17.349Z,31.60
2018-07-31T13:51:48.655Z,31.90
2018-07-31T13:54:22.057Z,31.80
2018-07-31T13:56:55.791Z,32.00
2018-07-31T13:59:30.597Z,32.10
2018-07-31T14:02:04.077Z,32.10
2018-07-31T14:04:43.263Z,32.00
2018-07-31T14:07:13.681Z,32.10
2018-07-31T14:09:48.760Z,32.30
2018-07-31T14:12:21.708Z,31.90
2018-07-31T14:14:56.771Z,31.70
2018-07-31T14:17:29.285Z,31.40
2018-07-31T14:20:02.964Z,31.40
2018-07-31T14:22:37.164Z,31.10
2018-07-31T14:25:10.912Z,31.20
2018-07-31T14:30:17.227Z,31.00
2018-07-31T14:37:52.860Z,31.80
2018-07-31T14:40:21.448Z,31.50
2018-07-31T14:42:55.502Z,31.50
2018-07-31T14:45:27.988Z,31.30
2018-07-31T14:48:01.773Z,31.50
2018-07-31T14:50:35.711Z,31.60
2018-07-31T14:53:08.393Z,31.60
2018-07-31T14:55:42.254Z,31.60
2018-07-31T14:58:15.333Z,31.20
2018-07-31T15:03:16.989Z,31.00
2018-07-31T15:05:45.465Z,31.00
2018-07-31T15:08:17.821Z,30.90
2018-07-31T15:10:50.912Z,30.80
2018-07-31T15:13:47.737Z,30.70
2018-07-31T15:16:16.358Z,30.80
2018-07-31T15:18:49.045Z,30.70
2018-07-31T15:21:22.525Z,30.80
2018-07-31T15:23:50.971Z,30.90
2018-07-31T15:26:19.431Z,30.80
2018-07-31T15:28:47.961Z,30.90
2018-07-31T15:31:16.399Z,31.00
2018-07-31T15:33:44.862Z,31.10
2018-07-31T15:36:13.339Z,31.20
2018-07-31T15:38:41.782Z,31.20
2018-07-31T15:41:10.662Z,31.00
2018-07-31T15:43:39.115Z,30.90
2018-07-31T15:46:07.646Z,31.10
2018-07-31T15:48:36.035Z,31.30
2018-07-31T15:51:04.525Z,31.20
2018-07-31T15:53:39.923Z,31.20
2018-07-31T15:58:52.860Z,31.00
2018-07-31T16:01:34.392Z,30.90
2018-07-31T16:04:12.946Z,30.70
2018-07-31T16:09:37.254Z,30.30
2018-07-31T16:15:19.780Z,30.30
2018-07-31T16:17:48.273Z,30.20
2018-07-31T16:20:16.798Z,30.20
2018-07-31T16:22:45.263Z,30.40
2018-07-31T16:25:13.706Z,30.50
2018-07-31T16:27:42.750Z,30.50
2018-07-31T16:30:11.261Z,30.60
2018-07-31T16:32:39.832Z,30.50
2018-07-31T16:35:08.275Z,30.40
2018-07-31T16:37:36.743Z,30.40
2018-07-31T16:40:05.727Z,30.60
2018-07-31T16:42:34.345Z,30.60
2018-07-31T16:45:02.880Z,30.30
2018-07-31T16:47:31.394Z,30.20
2018-07-31T16:50:00.090Z,30.00
2018-07-31T16:52:28.571Z,29.80
2018-07-31T16:54:57.032Z,30.00
2018-07-31T16:57:25.480Z,30.00
2018-07-31T16:59:54.004Z,30.10
2018-07-31T17:02:22.490Z,30.10
2018-07-31T17:04:51.336Z,30.00
2018-07-31T17:07:19.916Z,29.90
2018-07-31T17:09:48.344Z,30.00
2018-07-31T17:12:16.903Z,30.10
2018-07-31T17:14:45.308Z,30.00
2018-07-31T17:17:13.742Z,30.10
2018-07-31T17:19:42.182Z,30.10
2018-07-31T17:22:11.708Z,30.10
2018-07-31T17:24:40.140Z,30.20
2018-07-31T17:27:08.640Z,30.10
2018-07-31T17:29:37.173Z,30.10
2018-07-31T17:32:05.697Z,30.10
2018-07-31T17:34:34.144Z,30.00
2018-07-31T17:37:02.664Z,29.90
2018-07-31T17:39:31.102Z,29.90
2018-07-31T17:41:59.545Z,30.00
2018-07-31T17:44:28.118Z,29.90
2018-07-31T17:46:56.656Z,30.00
2018-07-31T17:49:25.384Z,30.00
2018-07-31T17:51:53.988Z,29.90
2018-07-31T17:54:22.480Z,29.80
2018-07-31T17:56:50.942Z,29.80
2018-07-31T17:59:19.379Z,29.70
2018-07-31T18:01:47.868Z,29.60
2018-07-31T18:04:16.458Z,29.50
2018-07-31T18:06:44.895Z,29.30
2018-07-31T18:09:13.428Z,29.10
2018-07-31T18:11:42.209Z,29.00
2018-07-31T18:14:10.705Z,28.90
2018-07-31T18:16:40.165Z,28.80
2018-07-31T18:19:08.823Z,28.80
2018-07-31T18:21:37.636Z,28.70
2018-07-31T18:24:06.949Z,28.70
2018-07-31T18:26:35.492Z,28.70
2018-07-31T18:29:04.007Z,28.70
2018-07-31T18:31:32.448Z,28.60
2018-07-31T18:34:00.940Z,28.50
2018-07-31T18:36:29.448Z,28.40
2018-07-31T18:38:57.969Z,28.30
2018-07-31T18:43:55.584Z,28.20
2018-07-31T18:46:24.002Z,28.10
2018-07-31T18:48:53.389Z,28.10
2018-07-31T18:51:21.816Z,28.10
2018-07-31T18:53:50.271Z,28.00
2018-07-31T18:56:18.868Z,27.90
2018-07-31T18:58:47.355Z,27.90
2018-07-31T19:01:15.905Z,27.80
2018-07-31T19:03:44.329Z,27.70
2018-07-31T19:06:12.864Z,27.70
2018-07-31T19:08:41.442Z,27.70
2018-07-31T19:11:10.152Z,27.50
2018-07-31T19:13:38.556Z,27.50
2018-07-31T19:16:07.163Z,27.40
2018-07-31T19:18:35.725Z,27.30
2018-07-31T19:21:04.151Z,27.30
2018-07-31T19:23:32.822Z,27.30
2018-07-31T19:26:01.241Z,27.20
2018-07-31T19:28:29.767Z,27.20
2018-07-31T19:30:58.294Z,27.20
2018-07-31T19:33:26.866Z,27.20
2018-07-31T19:35:55.321Z,27.20
2018-07-31T19:38:23.989Z,27.10
2018-07-31T19:40:52.869Z,27.10
2018-07-31T19:43:21.278Z,27.00
2018-07-31T19:45:49.933Z,26.90
2018-07-31T19:48:18.864Z,26.90
2018-07-31T19:50:47.901Z,26.80
2018-07-31T19:53:18.116Z,26.80
2018-07-31T19:55:46.957Z,26.80
2018-07-31T19:58:15.519Z,26.70
2018-07-31T20:00:43.916Z,26.70
2018-07-31T20:03:12.723Z,26.60
2018-07-31T20:05:41.197Z,26.60
2018-07-31T20:08:10.350Z,26.50
2018-07-31T20:10:39.416Z,26.50
2018-07-31T20:13:07.905Z,26.50
2018-07-31T20:15:36.751Z,26.40
2018-07-31T20:18:05.842Z,26.30
2018-07-31T20:20:35.029Z,26.20
2018-07-31T20:23:03.615Z,26.20
2018-07-31T20:25:32.092Z,26.20
2018-07-31T20:28:00.739Z,26.10
2018-07-31T20:30:29.232Z,26.10
2018-07-31T20:32:57.680Z,26.10
2018-07-31T20:35:26.110Z,26.00
2018-07-31T20:37:55.027Z,26.00
2018-07-31T20:40:23.639Z,25.90
2018-07-31T20:42:53.081Z,25.90
2018-07-31T20:45:21.654Z,25.90
2018-07-31T20:47:50.186Z,25.90
2018-07-31T20:50:18.754Z,25.80
2018-07-31T20:52:47.300Z,25.70
2018-07-31T20:55:15.711Z,25.70
2018-07-31T20:57:44.183Z,25.70
2018-07-31T21:00:13.133Z,25.60
2018-07-31T21:02:41.674Z,25.60
2018-07-31T21:05:10.113Z,25.50
2018-07-31T21:07:38.692Z,25.50
2018-07-31T21:10:09.355Z,25.50
2018-07-31T21:12:37.826Z,25.50
2018-07-31T21:15:06.925Z,25.40
2018-07-31T21:17:35.413Z,25.40
2018-07-31T21:20:03.925Z,25.30
2018-07-31T21:22:32.443Z,25.30
2018-07-31T21:27:29.073Z,25.30
2018-07-31T21:29:57.809Z,25.30
2018-07-31T21:32:26.393Z,25.20
2018-07-31T21:34:54.817Z,25.20
2018-07-31T21:37:23.240Z,25.20
2018-07-31T21:39:51.649Z,25.10
2018-07-31T21:42:20.140Z,25.10
2018-07-31T21:44:48.884Z,25.10
2018-07-31T21:47:17.381Z,25.00
2018-07-31T21:49:45.843Z,25.00
2018-07-31T21:52:14.381Z,24.90
2018-07-31T21:57:11.005Z,24.90
2018-07-31T21:59:39.494Z,24.90
2018-07-31T22:02:07.950Z,24.90
2018-07-31T22:04:37.308Z,24.90
2018-07-31T22:07:05.768Z,24.80
2018-07-31T22:09:39.528Z,24.80
2018-07-31T22:12:08.194Z,24.70
2018-07-31T22:14:36.676Z,24.80
2018-07-31T22:17:05.140Z,24.70
2018-07-31T22:19:33.602Z,24.60
2018-07-31T22:22:02.061Z,24.60
2018-07-31T22:24:30.513Z,24.60
2018-07-31T22:26:58.997Z,24.50
2018-07-31T22:29:27.640Z,24.40
2018-07-31T22:31:56.072Z,24.40
2018-07-31T22:34:24.704Z,24.30
2018-07-31T22:36:53.268Z,24.30
2018-07-31T22:39:21.752Z,24.30
2018-07-31T22:41:51.350Z,24.30
2018-07-31T22:44:19.760Z,24.20
2018-07-31T22:49:16.365Z,24.20
2018-07-31T22:51:44.846Z,24.20
2018-07-31T22:54:13.262Z,24.20
2018-07-31T22:56:42.255Z,24.20
2018-07-31T22:59:10.708Z,24.20
2018-07-31T23:01:39.956Z,24.10
2018-07-31T23:04:08.397Z,24.10
2018-07-31T23:06:36.845Z,24.10
2018-07-31T23:09:07.842Z,24.10
2018-07-31T23:11:36.377Z,24.10
2018-07-31T23:14:04.862Z,24.10
2018-07-31T23:16:33.522Z,24.10
2018-07-31T23:19:01.937Z,24.00
2018-07-31T23:21:30.396Z,24.00
2018-07-31T23:23:58.968Z,23.90
2018-07-31T23:26:27.373Z,23.80
2018-07-31T23:28:55.789Z,23.70
2018-07-31T23:31:24.596Z,23.70
2018-07-31T23:33:53.008Z,23.70
2018-07-31T23:36:21.454Z,23.50
2018-07-31T23:38:49.887Z,23.40
2018-07-31T23:41:18.490Z,23.40
2018-07-31T23:43:47.018Z,23.30
2018-07-31T23:46:15.504Z,23.30
2018-07-31T23:48:43.953Z,23.30
2018-07-31T23:51:12.479Z,23.20
2018-07-31T23:53:40.946Z,23.20
2018-07-31T23:56:09.396Z,23.30
2018-07-31T23:58:37.928Z,23.20
